Bonduel, Wisconsin
Current Conditions -  °F | °C
As of 6:55 PM on Wednesday 22 Oct 2014 (Local Time) from KEZS Reporting Station
Clear Clear  
Wind Chill: 40°   Ceiling: Unl
Heat Index: 44°   Visibility: 10mi
Dew Point: 37°   Wind: 7mph
Humidity: 76%   Direction: 120°ESE
Pressure: 30.24"   Gusts: NA
Location:  44.74°N, 88.44°W
Report Text: KEZS 222355Z AUTO 12006KT 10SM CLR 07/03 A3024 RMK AO2 T00660026 10138 20064
Loading
Personal Weather Stations






























Interactive Weather Map
Tropical Storm Tracking
New forecast layout! Learn more

10-Day Weather Forecast

Advertisements
Track Severe Weather on mobile